< < Back
Terminal Aerodrome Forecast


Current Version              Previous Versions:   1  2  3  4  5  6  7  8  9  

Terminal Aerodrome Forecast

383
FTUS42 KCAE 302348
TAFCAE
TAF
KCAE 302348Z 3100/3124 VRB05KT P6SM VCSH SCT009 OVC030
      TEMPO 3100/3103 5SM -RA BR BKN009
     FM310300 VRB04KT P6SM OVC007
      TEMPO 3110/3114 4SM BR
     FM311600 09006KT P6SM BKN015 OVC040=

Latest METAR

720
SAUS80 KWBC 311100
MTRCAE
METAR KCAE 311056Z 33004KT 10SM OVC004 21/19 A3007 RMK AO2 SLP179
T02110194


USA.gov is the U.S. government's official web portal to all federal, state and local government web resources and services.